createdAt,value
2023-04-20T00:01:01.478Z,0.75
2023-04-20T00:03:28.641Z,0.22
2023-04-20T00:05:55.775Z,0.46
2023-04-20T00:08:22.398Z,0.55
2023-04-20T00:10:49.036Z,0.54
2023-04-20T00:13:16.112Z,0.60
2023-04-20T00:15:42.850Z,0.79
2023-04-20T00:18:09.602Z,0.67
2023-04-20T00:20:36.849Z,0.90
2023-04-20T00:23:03.806Z,0.79
2023-04-20T00:25:31.796Z,0.83
2023-04-20T00:27:58.468Z,0.79
2023-04-20T00:30:25.161Z,0.32
2023-04-20T00:32:52.014Z,0.33
2023-04-20T00:35:18.800Z,0.24
2023-04-20T00:37:45.608Z,0.26
2023-04-20T00:40:12.449Z,0.41
2023-04-20T00:42:40.994Z,0.44
2023-04-20T00:45:08.507Z,0.52
2023-04-20T00:47:37.372Z,0.50
2023-04-20T00:50:04.782Z,0.46
2023-04-20T00:52:32.563Z,0.50
2023-04-20T00:54:59.508Z,0.47
2023-04-20T00:57:26.862Z,0.50
2023-04-20T00:59:53.562Z,0.40
2023-04-20T01:02:22.791Z,0.60
2023-04-20T01:04:49.943Z,0.62
2023-04-20T01:07:16.897Z,0.54
2023-04-20T01:09:43.685Z,0.48
2023-04-20T01:12:11.667Z,0.61
2023-04-20T01:14:38.412Z,0.69
2023-04-20T01:17:06.074Z,0.77
2023-04-20T01:19:33.405Z,0.65
2023-04-20T01:22:02.328Z,0.74
2023-04-20T01:24:29.023Z,0.94
2023-04-20T01:26:56.361Z,1.13
2023-04-20T01:29:23.059Z,0.69
2023-04-20T01:31:49.789Z,0.73
2023-04-20T01:34:17.723Z,0.94
2023-04-20T01:36:45.713Z,1.20
2023-04-20T01:39:12.622Z,1.17
2023-04-20T01:41:39.768Z,1.26
2023-04-20T01:44:06.460Z,0.75
2023-04-20T01:46:33.180Z,0.57
2023-04-20T01:48:59.949Z,0.86
2023-04-20T01:51:27.765Z,0.86
2023-04-20T01:53:54.640Z,1.10
2023-04-20T01:56:21.370Z,0.70
2023-04-20T01:58:49.323Z,0.80
2023-04-20T02:01:16.144Z,1.10
2023-04-20T02:03:43.366Z,0.81
2023-04-20T02:06:10.320Z,1.04
2023-04-20T02:08:43.207Z,1.06
2023-04-20T02:11:10.147Z,1.30
2023-04-20T02:13:37.141Z,0.96
2023-04-20T02:16:04.048Z,1.38
2023-04-20T02:18:32.921Z,1.51
2023-04-20T02:21:01.277Z,1.66
2023-04-20T02:23:28.309Z,1.74
2023-04-20T02:25:55.641Z,1.59
2023-04-20T02:28:22.397Z,1.83
2023-04-20T02:30:49.116Z,1.74
2023-04-20T02:33:15.819Z,1.92
2023-04-20T02:35:42.478Z,1.91
2023-04-20T02:38:10.979Z,1.77
2023-04-20T02:40:39.092Z,1.91
2023-04-20T02:43:06.152Z,1.74
2023-04-20T02:45:33.626Z,1.87
2023-04-20T02:48:00.780Z,1.95
2023-04-20T02:50:30.589Z,1.68
2023-04-20T02:53:06.695Z,1.60
2023-04-20T02:55:36.146Z,1.77
2023-04-20T02:58:11.224Z,1.94
2023-04-20T03:01:01.882Z,1.81
2023-04-20T03:03:30.416Z,1.52
2023-04-20T03:05:58.860Z,1.84
2023-04-20T03:08:25.811Z,1.67
2023-04-20T03:10:53.640Z,1.67
2023-04-20T03:13:20.680Z,1.52
2023-04-20T03:15:52.276Z,1.18
2023-04-20T03:18:40.228Z,1.51
2023-04-20T03:21:07.015Z,1.49
2023-04-20T03:23:34.285Z,1.36
2023-04-20T03:26:05.307Z,1.59
2023-04-20T03:28:41.622Z,1.57
2023-04-20T03:31:10.861Z,1.57
2023-04-20T03:33:37.753Z,1.11
2023-04-20T03:36:05.998Z,1.49
2023-04-20T03:38:32.742Z,1.71
2023-04-20T03:53:31.378Z,1.58
2023-04-20T03:55:59.512Z,1.55
2023-04-20T03:58:26.675Z,1.73
2023-04-20T04:01:13.102Z,1.46
2023-04-20T04:03:44.326Z,1.74
2023-04-20T04:06:11.957Z,1.84
2023-04-20T04:08:38.807Z,1.86
2023-04-20T04:11:05.781Z,1.38
2023-04-20T04:13:34.416Z,1.45
2023-04-20T04:16:02.838Z,1.68
2023-04-20T04:18:32.412Z,1.56
2023-04-20T04:21:04.586Z,1.36
2023-04-20T04:23:31.536Z,1.32
2023-04-20T04:26:05.837Z,1.18
2023-04-20T04:28:35.578Z,1.41
2023-04-20T04:31:14.205Z,1.20
2023-04-20T04:33:41.082Z,1.53
2023-04-20T04:36:11.027Z,1.62
2023-04-20T04:38:39.397Z,1.54
2023-04-20T04:41:06.150Z,1.66
2023-04-20T04:43:33.830Z,1.64
2023-04-20T04:46:10.388Z,1.03
2023-04-20T04:48:37.871Z,1.17
2023-04-20T04:51:05.210Z,1.72
2023-04-20T04:53:32.152Z,1.81
2023-04-20T04:55:58.814Z,1.61
2023-04-20T04:58:25.791Z,1.58
2023-04-20T05:00:52.855Z,1.81
2023-04-20T05:03:19.915Z,1.86
2023-04-20T05:05:46.723Z,1.11
2023-04-20T05:08:13.361Z,1.20
2023-04-20T05:10:40.060Z,1.60
2023-04-20T05:13:06.859Z,1.66
2023-04-20T05:15:33.825Z,1.75
2023-04-20T05:18:02.319Z,1.26
2023-04-20T05:20:29.265Z,1.39
2023-04-20T05:22:56.024Z,1.88
2023-04-20T05:25:22.676Z,2.24
2023-04-20T05:27:49.409Z,2.06
2023-04-20T05:30:21.430Z,2.28
2023-04-20T05:32:51.545Z,1.77
2023-04-20T05:35:19.968Z,1.83
2023-04-20T05:37:47.903Z,2.07
2023-04-20T05:40:15.439Z,2.14
2023-04-20T05:42:42.382Z,1.96
2023-04-20T05:45:09.864Z,1.74
2023-04-20T05:47:36.719Z,1.97
2023-04-20T05:50:04.452Z,2.25
2023-04-20T05:52:31.417Z,2.45
2023-04-20T05:54:59.534Z,2.35
2023-04-20T05:57:26.357Z,2.14
2023-04-20T05:59:55.426Z,2.52
2023-04-20T06:02:22.488Z,2.45
2023-04-20T06:04:49.530Z,2.92
2023-04-20T06:07:16.294Z,3.05
2023-04-20T06:09:44.519Z,3.23
2023-04-20T06:12:11.242Z,2.14
2023-04-20T06:14:37.936Z,3.01
2023-04-20T06:17:04.778Z,2.92
2023-04-20T06:19:31.945Z,2.97
2023-04-20T06:22:00.807Z,2.97
2023-04-20T06:24:28.014Z,2.73
2023-04-20T06:26:55.035Z,3.10
2023-04-20T06:29:21.854Z,2.81
2023-04-20T06:31:48.760Z,2.84
2023-04-20T06:34:16.268Z,2.92
2023-04-20T06:36:43.839Z,3.46
2023-04-20T06:39:13.342Z,2.91
2023-04-20T06:41:40.017Z,2.98
2023-04-20T06:44:07.420Z,3.43
2023-04-20T06:46:34.247Z,3.71
2023-04-20T06:49:01.366Z,3.76
2023-04-20T06:51:29.167Z,2.98
2023-04-20T06:53:56.320Z,3.43
2023-04-20T06:56:23.048Z,3.91
2023-04-20T06:58:50.026Z,3.71
2023-04-20T07:01:17.007Z,3.01
2023-04-20T07:03:44.171Z,2.60
2023-04-20T07:06:11.819Z,2.77
2023-04-20T07:08:39.657Z,3.42
2023-04-20T07:11:06.429Z,3.26
2023-04-20T07:13:33.832Z,4.20
2023-04-20T07:16:01.224Z,4.00
2023-04-20T07:18:28.216Z,4.50
2023-04-20T07:20:55.132Z,4.77
2023-04-20T07:23:21.827Z,4.36
2023-04-20T07:25:48.624Z,4.93
2023-04-20T07:28:15.453Z,5.61
2023-04-20T07:30:43.367Z,6.33
2023-04-20T07:33:11.191Z,6.17
2023-04-20T07:35:38.061Z,6.56
2023-04-20T07:38:04.877Z,6.44
2023-04-20T07:40:31.645Z,6.08
2023-04-20T07:42:58.413Z,5.77
2023-04-20T07:45:25.269Z,6.09
2023-04-20T07:47:54.113Z,5.61
2023-04-20T07:50:21.031Z,6.54
2023-04-20T07:52:47.716Z,5.82
2023-04-20T07:55:15.655Z,6.08
2023-04-20T07:57:42.585Z,5.68
2023-04-20T08:00:10.213Z,5.98
2023-04-20T08:02:39.988Z,5.88
2023-04-20T08:05:08.808Z,5.96
2023-04-20T08:07:36.207Z,5.85
2023-04-20T08:10:03.163Z,6.08
2023-04-20T08:12:29.932Z,6.09
2023-04-20T08:15:00.619Z,5.51
2023-04-20T08:17:28.179Z,6.20
2023-04-20T08:19:55.139Z,6.25
2023-04-20T08:22:21.918Z,7.02
2023-04-20T08:24:48.933Z,7.02
2023-04-20T08:27:15.721Z,7.32
2023-04-20T08:29:42.425Z,7.06
2023-04-20T08:32:09.377Z,7.53
2023-04-20T08:34:36.390Z,7.37
2023-04-20T08:37:03.688Z,7.22
2023-04-20T08:39:30.498Z,7.01
2023-04-20T08:41:57.727Z,7.90
2023-04-20T08:44:24.966Z,7.36
2023-04-20T08:46:51.849Z,8.00
2023-04-20T08:49:19.851Z,8.61
2023-04-20T08:51:47.924Z,8.95
2023-04-20T08:54:14.999Z,8.44
2023-04-20T08:56:47.568Z,9.03
2023-04-20T08:59:15.606Z,8.38
2023-04-20T09:01:43.284Z,8.88
2023-04-20T09:04:22.030Z,7.81
2023-04-20T09:06:51.724Z,8.50
2023-04-20T09:09:19.769Z,8.90
2023-04-20T09:11:47.071Z,9.41
2023-04-20T09:14:19.478Z,9.09
2023-04-20T09:17:05.128Z,8.60
2023-04-20T09:19:32.123Z,9.03
2023-04-20T09:22:01.268Z,8.94
2023-04-20T09:24:35.734Z,7.96
2023-04-20T09:27:15.029Z,8.85
2023-04-20T09:29:41.747Z,8.36
2023-04-20T09:32:08.715Z,8.74
2023-04-20T09:34:45.145Z,8.63
2023-04-20T09:37:15.930Z,8.77
2023-04-20T09:39:47.047Z,8.70
2023-04-20T09:42:15.700Z,8.62
2023-04-20T09:44:43.339Z,8.83
2023-04-20T09:47:21.442Z,9.13
2023-04-20T09:49:48.416Z,10.23
2023-04-20T09:52:18.361Z,9.15
2023-04-20T09:54:45.401Z,9.37
2023-04-20T09:57:13.912Z,9.40
2023-04-20T09:59:46.812Z,9.16
2023-04-20T10:02:14.405Z,9.86
2023-04-20T10:04:57.417Z,9.22
2023-04-20T10:07:28.219Z,8.65
2023-04-20T10:10:06.484Z,9.85
2023-04-20T10:12:33.668Z,9.59
2023-04-20T10:15:01.332Z,9.51
2023-04-20T10:17:32.646Z,9.77
2023-04-20T10:19:59.656Z,9.84
2023-04-20T10:22:33.468Z,9.89
2023-04-20T10:25:14.591Z,9.27
2023-04-20T10:27:57.273Z,9.96
2023-04-20T10:30:26.067Z,10.05
2023-04-20T10:33:11.359Z,10.32
2023-04-20T10:35:55.277Z,9.99
2023-04-20T10:38:33.109Z,9.27
2023-04-20T10:41:10.445Z,10.14
2023-04-20T10:43:42.079Z,9.32
2023-04-20T10:46:23.588Z,9.64
2023-04-20T10:48:58.363Z,9.38
2023-04-20T10:51:26.225Z,9.31
2023-04-20T10:54:08.378Z,9.32
2023-04-20T10:56:40.146Z,9.29
2023-04-20T10:59:14.465Z,9.57
2023-04-20T11:01:41.858Z,9.82
2023-04-20T11:04:10.656Z,9.87
2023-04-20T11:06:41.997Z,9.89
2023-04-20T11:09:19.786Z,9.90
2023-04-20T11:11:46.989Z,9.80
2023-04-20T11:14:13.936Z,8.80
2023-04-20T11:16:50.741Z,9.43
2023-04-20T11:19:37.081Z,9.68
2023-04-20T11:22:06.365Z,9.86
2023-04-20T11:24:34.590Z,9.63
2023-04-20T11:27:02.330Z,9.16
2023-04-20T11:29:30.207Z,8.97
2023-04-20T11:31:57.645Z,8.77
2023-04-20T11:34:24.448Z,8.43
2023-04-20T11:36:51.595Z,8.74
2023-04-20T11:39:29.622Z,9.85
2023-04-20T11:41:57.284Z,10.58
2023-04-20T11:44:25.968Z,10.05
2023-04-20T11:46:57.049Z,9.80
2023-04-20T11:49:25.517Z,10.02
2023-04-20T11:51:52.365Z,8.92
2023-04-20T11:54:19.273Z,8.99
2023-04-20T11:56:46.579Z,9.53
2023-04-20T11:59:19.734Z,8.82
2023-04-20T12:01:47.863Z,8.34
2023-04-20T12:04:15.645Z,8.67
2023-04-20T12:06:42.743Z,8.74
2023-04-20T12:09:09.680Z,8.07
2023-04-20T12:11:36.368Z,8.68
2023-04-20T12:14:04.546Z,9.17
2023-04-20T12:16:31.744Z,8.62
2023-04-20T12:18:58.583Z,9.22
2023-04-20T12:21:25.375Z,9.74
2023-04-20T12:23:52.611Z,9.94
2023-04-20T12:26:19.354Z,9.59
2023-04-20T12:28:46.012Z,9.50
2023-04-20T12:31:12.838Z,9.02
2023-04-20T12:33:39.615Z,8.89
2023-04-20T12:36:06.645Z,9.08
2023-04-20T12:38:33.535Z,9.00
2023-04-20T12:41:00.567Z,8.60
2023-04-20T12:43:27.401Z,8.29
2023-04-20T12:45:54.344Z,8.08
2023-04-20T12:48:21.446Z,7.65
2023-04-20T12:50:48.425Z,7.99
2023-04-20T12:53:15.243Z,7.49
2023-04-20T12:55:42.127Z,7.40
2023-04-20T12:58:08.971Z,7.88
2023-04-20T13:00:36.739Z,7.93
2023-04-20T13:03:04.339Z,8.03
2023-04-20T13:05:31.134Z,8.65
2023-04-20T13:07:57.849Z,8.29
2023-04-20T13:10:24.519Z,8.90
2023-04-20T13:12:52.550Z,8.30
2023-04-20T13:15:31.850Z,8.42
2023-04-20T13:18:06.087Z,7.86
2023-04-20T13:20:33.039Z,8.76
2023-04-20T13:23:01.389Z,8.25
2023-04-20T13:25:32.639Z,8.44
2023-04-20T13:28:00.955Z,8.29
2023-04-20T13:30:27.776Z,8.51
2023-04-20T13:32:54.566Z,8.20
2023-04-20T13:35:21.704Z,7.65
2023-04-20T13:37:48.505Z,8.08
2023-04-20T13:40:15.377Z,8.13
2023-04-20T13:42:42.564Z,8.40
2023-04-20T13:45:10.383Z,8.20
2023-04-20T13:47:38.931Z,8.46
2023-04-20T13:50:07.415Z,8.14
2023-04-20T13:52:34.500Z,7.89
2023-04-20T13:55:01.378Z,7.45
2023-04-20T13:57:28.155Z,7.58
2023-04-20T13:59:54.911Z,7.18
2023-04-20T14:02:21.708Z,7.33
2023-04-20T14:04:48.902Z,7.31
2023-04-20T14:07:15.766Z,7.63
2023-04-20T14:09:44.351Z,7.08
2023-04-20T14:12:11.722Z,7.11
2023-04-20T14:14:38.825Z,6.71
2023-04-20T14:17:05.677Z,7.29
2023-04-20T14:19:32.647Z,7.01
2023-04-20T14:21:59.433Z,7.22
2023-04-20T14:24:26.224Z,7.17
2023-04-20T14:26:53.062Z,7.03
2023-04-20T14:29:20.138Z,7.28
2023-04-20T14:31:46.970Z,7.14
2023-04-20T14:34:14.262Z,7.06
2023-04-20T14:36:41.202Z,7.22
2023-04-20T14:39:08.283Z,6.51
2023-04-20T14:41:35.360Z,7.19
2023-04-20T14:44:02.236Z,7.25
2023-04-20T14:46:29.137Z,6.97
2023-04-20T14:48:56.080Z,7.14
2023-04-20T14:51:22.897Z,7.32
2023-04-20T14:53:49.901Z,7.11
2023-04-20T14:56:16.845Z,6.87
2023-04-20T14:58:43.616Z,6.21
2023-04-20T15:01:11.276Z,6.42
2023-04-20T15:03:38.243Z,6.87
2023-04-20T15:06:05.363Z,7.07
2023-04-20T15:08:32.209Z,6.91
2023-04-20T15:10:59.316Z,6.37
2023-04-20T15:13:26.249Z,6.54
2023-04-20T15:15:55.344Z,6.93
2023-04-20T15:18:22.540Z,6.99
2023-04-20T15:20:52.485Z,6.33
2023-04-20T15:23:19.882Z,6.15
2023-04-20T15:25:46.720Z,6.01
2023-04-20T15:28:13.484Z,6.71
2023-04-20T15:30:40.621Z,6.84
2023-04-20T15:33:07.460Z,6.87
2023-04-20T15:35:35.170Z,7.12
2023-04-20T15:38:02.927Z,6.88
2023-04-20T15:40:29.962Z,7.00
2023-04-20T15:42:56.762Z,7.08
2023-04-20T15:45:23.477Z,7.11
2023-04-20T15:47:51.433Z,7.07
2023-04-20T15:50:18.323Z,7.18
2023-04-20T15:52:45.793Z,6.87
2023-04-20T15:55:12.630Z,6.69
2023-04-20T15:57:39.559Z,6.41
2023-04-20T16:00:08.248Z,6.74
2023-04-20T16:02:38.488Z,7.06
2023-04-20T16:05:07.114Z,7.15
2023-04-20T16:07:33.901Z,7.30
2023-04-20T16:10:02.124Z,6.62
2023-04-20T16:12:29.264Z,6.20
2023-04-20T16:14:57.298Z,6.72
2023-04-20T16:17:24.247Z,6.23
2023-04-20T16:19:51.118Z,6.46
2023-04-20T16:22:17.987Z,6.67
2023-04-20T16:24:45.050Z,6.59
2023-04-20T16:27:11.836Z,6.98
2023-04-20T16:29:38.777Z,7.12
2023-04-20T16:32:06.587Z,7.20
2023-04-20T16:34:33.425Z,7.18
2023-04-20T16:37:00.140Z,7.23
2023-04-20T16:39:26.903Z,6.92
2023-04-20T16:41:54.158Z,6.99
2023-04-20T16:44:21.234Z,6.85
2023-04-20T16:46:51.331Z,6.30
2023-04-20T16:49:19.462Z,6.68
2023-04-20T16:51:46.136Z,6.43
2023-04-20T16:54:12.979Z,6.88
2023-04-20T16:56:40.817Z,6.44
2023-04-20T16:59:08.150Z,6.83
2023-04-20T17:01:35.679Z,6.91
2023-04-20T17:04:02.722Z,7.06
2023-04-20T17:06:29.585Z,6.96
2023-04-20T17:09:01.382Z,6.66
2023-04-20T17:11:28.193Z,6.92
2023-04-20T17:13:54.917Z,6.75
2023-04-20T17:16:21.658Z,6.68
2023-04-20T17:18:48.678Z,6.88
2023-04-20T17:21:15.430Z,6.94
2023-04-20T17:23:42.111Z,6.69
2023-04-20T17:26:09.154Z,6.35
2023-04-20T17:28:38.136Z,6.59
2023-04-20T17:31:04.925Z,6.46
2023-04-20T17:33:31.778Z,6.65
2023-04-20T17:36:00.136Z,6.27
2023-04-20T17:38:26.851Z,6.41
2023-04-20T17:40:53.792Z,6.24
2023-04-20T17:43:20.508Z,6.45
2023-04-20T17:45:50.751Z,6.59
2023-04-20T17:48:17.557Z,6.12
2023-04-20T17:50:48.954Z,5.77
2023-04-20T17:53:15.636Z,6.05
2023-04-20T17:55:42.389Z,6.17
2023-04-20T17:58:09.118Z,6.24
2023-04-20T18:00:35.996Z,6.26
2023-04-20T18:03:02.865Z,6.28
2023-04-20T18:05:30.069Z,6.30
2023-04-20T18:07:56.805Z,6.29
2023-04-20T18:10:23.480Z,6.21
2023-04-20T18:12:50.391Z,6.23
2023-04-20T18:15:17.138Z,6.23
2023-04-20T18:17:44.666Z,6.11
2023-04-20T18:20:12.115Z,6.18
2023-04-20T18:22:39.196Z,6.11
2023-04-20T18:25:06.476Z,6.24
2023-04-20T18:27:33.346Z,6.07
2023-04-20T18:30:00.293Z,6.06
2023-04-20T18:32:27.651Z,6.17
2023-04-20T18:34:54.385Z,6.17
2023-04-20T18:37:21.284Z,5.98
2023-04-20T18:39:48.047Z,5.58
2023-04-20T18:42:14.847Z,5.79
2023-04-20T18:44:41.574Z,5.61
2023-04-20T18:47:08.519Z,5.85
2023-04-20T18:49:35.653Z,5.67
2023-04-20T18:52:02.788Z,5.27
2023-04-20T18:54:29.481Z,5.25
2023-04-20T18:56:56.674Z,5.68
2023-04-20T18:59:24.697Z,5.73
2023-04-20T19:01:52.540Z,5.93
2023-04-20T19:04:20.190Z,5.42
2023-04-20T19:06:47.074Z,5.14
2023-04-20T19:09:14.125Z,5.17
2023-04-20T19:11:40.821Z,5.61
2023-04-20T19:14:07.735Z,4.76
2023-04-20T19:16:34.848Z,5.31
2023-04-20T19:19:01.648Z,5.53
2023-04-20T19:21:28.377Z,5.01
2023-04-20T19:23:56.318Z,5.10
2023-04-20T19:26:24.432Z,4.76
2023-04-20T19:28:51.545Z,5.24
2023-04-20T19:31:18.378Z,5.43
2023-04-20T19:33:45.319Z,5.54
2023-04-20T19:36:12.005Z,5.35
2023-04-20T19:38:39.073Z,5.58
2023-04-20T19:41:06.285Z,5.65
2023-04-20T19:43:33.087Z,4.80
2023-04-20T19:45:59.947Z,4.90
2023-04-20T19:49:05.706Z,4.97
2023-04-20T19:51:32.845Z,5.12
2023-04-20T19:54:01.704Z,5.35
2023-04-20T19:56:28.469Z,5.14
2023-04-20T19:58:55.172Z,4.96
2023-04-20T20:01:21.865Z,4.74
2023-04-20T20:03:48.767Z,4.65
2023-04-20T20:06:15.823Z,5.03
2023-04-20T20:08:42.679Z,5.05
2023-04-20T20:11:09.547Z,4.61
2023-04-20T20:13:36.343Z,4.96
2023-04-20T20:16:04.099Z,5.18
2023-04-20T20:18:31.228Z,4.93
2023-04-20T20:20:57.886Z,5.23
2023-04-20T20:23:24.533Z,5.37
2023-04-20T20:25:51.426Z,5.31
2023-04-20T20:28:18.256Z,5.19
2023-04-20T20:30:45.394Z,4.98
2023-04-20T20:33:12.850Z,5.29
2023-04-20T20:35:39.927Z,5.42
2023-04-20T20:38:07.643Z,5.48
2023-04-20T20:40:35.512Z,5.40
2023-04-20T20:43:02.510Z,5.22
2023-04-20T20:45:29.978Z,5.44
2023-04-20T20:47:56.876Z,5.58
2023-04-20T20:50:24.456Z,5.57
2023-04-20T20:52:51.154Z,4.92
2023-04-20T20:59:36.132Z,5.37
2023-04-20T21:02:03.655Z,5.48
2023-04-20T21:04:56.883Z,5.41
2023-04-20T21:07:23.509Z,5.57
2023-04-20T21:09:50.619Z,5.33
2023-04-20T21:12:17.241Z,5.53
2023-04-20T21:14:43.872Z,5.63
2023-04-20T21:17:11.007Z,5.55
2023-04-20T21:19:37.697Z,5.66
2023-04-20T21:22:04.347Z,5.67
2023-04-20T21:24:31.049Z,5.74
2023-04-20T21:26:58.121Z,5.74
2023-04-20T21:29:24.810Z,5.65
2023-04-20T21:31:52.254Z,5.68
2023-04-20T21:34:19.097Z,5.67
2023-04-20T21:36:45.894Z,5.65
2023-04-20T21:39:12.647Z,5.61
2023-04-20T21:41:39.333Z,5.59
2023-04-20T21:44:05.991Z,5.62
2023-04-20T21:46:33.297Z,5.67
2023-04-20T21:49:00.401Z,5.61
2023-04-20T21:51:27.815Z,5.46
2023-04-20T21:53:54.569Z,5.44
2023-04-20T21:56:21.558Z,5.64
2023-04-20T21:58:48.749Z,5.67
2023-04-20T22:01:15.527Z,5.77
2023-04-20T22:03:42.472Z,5.86
2023-04-20T22:06:09.352Z,5.51
2023-04-20T22:08:39.919Z,5.55
2023-04-20T22:11:07.184Z,5.43
2023-04-20T22:13:34.257Z,5.59
2023-04-20T22:16:01.019Z,5.37
2023-04-20T22:18:27.965Z,5.33
2023-04-20T22:20:54.720Z,5.41
2023-04-20T22:23:21.513Z,5.56
2023-04-20T22:25:48.125Z,5.48
2023-04-20T22:28:15.371Z,5.37
2023-04-20T22:30:42.860Z,5.46
2023-04-20T22:33:09.787Z,5.44
2023-04-20T22:35:36.571Z,5.30
2023-04-20T22:38:03.248Z,5.22
2023-04-20T22:40:30.069Z,5.01
2023-04-20T22:42:56.707Z,5.20
2023-04-20T22:45:23.299Z,5.33
2023-04-20T22:47:50.011Z,5.29
2023-04-20T22:50:16.930Z,5.32
2023-04-20T22:52:43.893Z,5.31
2023-04-20T22:55:10.993Z,5.43
2023-04-20T22:57:39.028Z,5.45
2023-04-20T23:00:10.461Z,5.18
2023-04-20T23:02:37.901Z,5.43
2023-04-20T23:05:05.957Z,4.90
2023-04-20T23:07:33.423Z,5.38
2023-04-20T23:10:01.476Z,4.96
2023-04-20T23:12:29.555Z,5.28
2023-04-20T23:14:56.812Z,5.39
2023-04-20T23:17:23.730Z,5.52
2023-04-20T23:19:51.280Z,5.46
2023-04-20T23:22:18.576Z,5.45
2023-04-20T23:24:45.431Z,5.53
2023-04-20T23:27:12.130Z,5.58
2023-04-20T23:29:38.829Z,5.09
2023-04-20T23:32:06.096Z,5.30
2023-04-20T23:34:33.145Z,5.49
2023-04-20T23:36:59.843Z,5.13
2023-04-20T23:39:26.757Z,5.55
2023-04-20T23:41:53.597Z,5.55
2023-04-20T23:44:20.274Z,5.72
2023-04-20T23:46:46.946Z,5.75
2023-04-20T23:49:13.764Z,5.69
2023-04-20T23:51:40.883Z,5.70
2023-04-20T23:54:07.557Z,5.68
2023-04-20T23:56:34.481Z,5.67
2023-04-20T23:59:01.212Z,5.86
